sensor_id;sensor_type;location;lat;lon;timestamp;temperature;humidity
18717;DHT22;9487;50.892;6.906;2022-12-07T00:00:50;5.50;99.90
18717;DHT22;9487;50.892;6.906;2022-12-07T00:03:16;5.50;99.90
18717;DHT22;9487;50.892;6.906;2022-12-07T00:05:43;5.50;99.90
18717;DHT22;9487;50.892;6.906;2022-12-07T00:08:11;5.50;99.90
18717;DHT22;9487;50.892;6.906;2022-12-07T00:10:38;5.50;99.90
18717;DHT22;9487;50.892;6.906;2022-12-07T00:13:05;5.50;99.90
18717;DHT22;9487;50.892;6.906;2022-12-07T00:15:33;5.50;99.90
18717;DHT22;9487;50.892;6.906;2022-12-07T00:18:01;5.50;99.90
18717;DHT22;9487;50.892;6.906;2022-12-07T00:20:28;5.50;99.90
18717;DHT22;9487;50.892;6.906;2022-12-07T00:22:55;5.50;99.90
18717;DHT22;9487;50.892;6.906;2022-12-07T00:25:24;5.50;99.90
18717;DHT22;9487;50.892;6.906;2022-12-07T00:27:52;5.70;99.90
18717;DHT22;9487;50.892;6.906;2022-12-07T00:30:21;5.80;99.90
18717;DHT22;9487;50.892;6.906;2022-12-07T00:32:48;5.60;99.90
18717;DHT22;9487;50.892;6.906;2022-12-07T00:35:15;5.50;99.90
18717;DHT22;9487;50.892;6.906;2022-12-07T00:37:41;5.60;99.90
18717;DHT22;9487;50.892;6.906;2022-12-07T00:40:09;5.60;99.90
18717;DHT22;9487;50.892;6.906;2022-12-07T00:42:37;5.70;99.90
18717;DHT22;9487;50.892;6.906;2022-12-07T00:45:05;5.60;99.90
18717;DHT22;9487;50.892;6.906;2022-12-07T00:47:32;5.50;99.90
18717;DHT22;9487;50.892;6.906;2022-12-07T00:49:59;5.50;99.90
18717;DHT22;9487;50.892;6.906;2022-12-07T00:52:26;5.50;99.90
18717;DHT22;9487;50.892;6.906;2022-12-07T00:54:53;5.50;99.90
18717;DHT22;9487;50.892;6.906;2022-12-07T00:57:20;5.40;99.90
18717;DHT22;9487;50.892;6.906;2022-12-07T00:59:48;5.40;99.90
18717;DHT22;9487;50.892;6.906;2022-12-07T01:02:15;5.50;99.90
18717;DHT22;9487;50.892;6.906;2022-12-07T01:04:42;5.50;99.90
18717;DHT22;9487;50.892;6.906;2022-12-07T01:07:08;5.60;99.90
18717;DHT22;9487;50.892;6.906;2022-12-07T01:09:35;5.60;99.90
18717;DHT22;9487;50.892;6.906;2022-12-07T01:12:02;5.60;99.90
18717;DHT22;9487;50.892;6.906;2022-12-07T01:14:29;5.60;99.90
18717;DHT22;9487;50.892;6.906;2022-12-07T01:16:57;5.60;99.90
18717;DHT22;9487;50.892;6.906;2022-12-07T01:19:24;5.60;99.90
18717;DHT22;9487;50.892;6.906;2022-12-07T01:21:51;5.60;99.90
18717;DHT22;9487;50.892;6.906;2022-12-07T01:24:18;5.40;99.90
18717;DHT22;9487;50.892;6.906;2022-12-07T01:26:44;5.40;99.90
18717;DHT22;9487;50.892;6.906;2022-12-07T01:29:11;5.40;99.90
18717;DHT22;9487;50.892;6.906;2022-12-07T01:31:38;5.40;99.90
18717;DHT22;9487;50.892;6.906;2022-12-07T01:34:06;5.40;99.90
18717;DHT22;9487;50.892;6.906;2022-12-07T01:36:35;5.30;99.90
18717;DHT22;9487;50.892;6.906;2022-12-07T01:39:05;5.30;99.90
18717;DHT22;9487;50.892;6.906;2022-12-07T01:41:33;5.30;99.90
18717;DHT22;9487;50.892;6.906;2022-12-07T01:44:20;5.40;99.90
18717;DHT22;9487;50.892;6.906;2022-12-07T01:46:48;5.40;99.90
18717;DHT22;9487;50.892;6.906;2022-12-07T01:49:28;5.40;99.90
18717;DHT22;9487;50.892;6.906;2022-12-07T01:52:01;5.40;99.90
18717;DHT22;9487;50.892;6.906;2022-12-07T01:54:30;5.40;99.90
18717;DHT22;9487;50.892;6.906;2022-12-07T01:56:58;5.40;99.90
18717;DHT22;9487;50.892;6.906;2022-12-07T01:59:26;5.50;99.90
18717;DHT22;9487;50.892;6.906;2022-12-07T02:01:54;5.40;99.90
18717;DHT22;9487;50.892;6.906;2022-12-07T02:04:23;5.40;99.90
18717;DHT22;9487;50.892;6.906;2022-12-07T02:06:51;5.50;99.90
18717;DHT22;9487;50.892;6.906;2022-12-07T02:09:18;5.50;99.90
18717;DHT22;9487;50.892;6.906;2022-12-07T02:11:45;5.50;99.90
18717;DHT22;9487;50.892;6.906;2022-12-07T02:14:12;5.60;99.90
18717;DHT22;9487;50.892;6.906;2022-12-07T02:16:48;5.50;99.90
18717;DHT22;9487;50.892;6.906;2022-12-07T02:22:53;5.40;99.90
18717;DHT22;9487;50.892;6.906;2022-12-07T02:25:39;5.40;99.90
18717;DHT22;9487;50.892;6.906;2022-12-07T02:28:18;5.30;99.90
18717;DHT22;9487;50.892;6.906;2022-12-07T02:30:48;5.40;99.90
18717;DHT22;9487;50.892;6.906;2022-12-07T02:33:18;5.40;99.90
18717;DHT22;9487;50.892;6.906;2022-12-07T02:35:53;5.40;99.90
18717;DHT22;9487;50.892;6.906;2022-12-07T02:38:28;5.30;99.90
18717;DHT22;9487;50.892;6.906;2022-12-07T02:41:00;5.30;99.90
18717;DHT22;9487;50.892;6.906;2022-12-07T02:43:34;5.30;99.90
18717;DHT22;9487;50.892;6.906;2022-12-07T02:46:06;5.30;99.90
18717;DHT22;9487;50.892;6.906;2022-12-07T02:48:34;5.20;99.90
18717;DHT22;9487;50.892;6.906;2022-12-07T02:51:01;5.30;99.90
18717;DHT22;9487;50.892;6.906;2022-12-07T02:53:30;5.20;99.90
18717;DHT22;9487;50.892;6.906;2022-12-07T02:55:57;5.20;99.90
18717;DHT22;9487;50.892;6.906;2022-12-07T02:58:34;5.20;99.90
18717;DHT22;9487;50.892;6.906;2022-12-07T03:01:08;5.40;99.90
18717;DHT22;9487;50.892;6.906;2022-12-07T03:03:40;5.30;99.90
18717;DHT22;9487;50.892;6.906;2022-12-07T03:06:17;5.40;99.90
18717;DHT22;9487;50.892;6.906;2022-12-07T03:08:53;5.50;99.90
18717;DHT22;9487;50.892;6.906;2022-12-07T03:11:28;5.50;99.90
18717;DHT22;9487;50.892;6.906;2022-12-07T03:14:02;5.40;99.90
18717;DHT22;9487;50.892;6.906;2022-12-07T03:16:40;5.30;99.90
18717;DHT22;9487;50.892;6.906;2022-12-07T03:19:13;5.30;99.90
18717;DHT22;9487;50.892;6.906;2022-12-07T03:21:46;5.20;99.90
18717;DHT22;9487;50.892;6.906;2022-12-07T03:24:17;5.20;99.90
18717;DHT22;9487;50.892;6.906;2022-12-07T03:26:48;5.20;99.90
18717;DHT22;9487;50.892;6.906;2022-12-07T03:29:20;5.20;99.90
18717;DHT22;9487;50.892;6.906;2022-12-07T03:31:54;5.20;99.90
18717;DHT22;9487;50.892;6.906;2022-12-07T03:34:28;5.20;99.90
18717;DHT22;9487;50.892;6.906;2022-12-07T03:36:59;5.20;99.90
18717;DHT22;9487;50.892;6.906;2022-12-07T03:39:30;5.20;99.90
18717;DHT22;9487;50.892;6.906;2022-12-07T03:42:01;5.20;99.90
18717;DHT22;9487;50.892;6.906;2022-12-07T03:44:30;5.20;99.90
18717;DHT22;9487;50.892;6.906;2022-12-07T03:47:02;5.20;99.90
18717;DHT22;9487;50.892;6.906;2022-12-07T03:49:36;5.20;99.90
18717;DHT22;9487;50.892;6.906;2022-12-07T03:52:12;5.20;99.90
18717;DHT22;9487;50.892;6.906;2022-12-07T03:54:44;5.20;99.90
18717;DHT22;9487;50.892;6.906;2022-12-07T03:57:12;5.20;99.90
18717;DHT22;9487;50.892;6.906;2022-12-07T03:59:40;5.30;99.90
18717;DHT22;9487;50.892;6.906;2022-12-07T04:02:11;5.20;99.90
18717;DHT22;9487;50.892;6.906;2022-12-07T04:04:39;5.20;99.90
18717;DHT22;9487;50.892;6.906;2022-12-07T04:07:06;5.30;99.90
18717;DHT22;9487;50.892;6.906;2022-12-07T04:09:33;5.30;99.90
18717;DHT22;9487;50.892;6.906;2022-12-07T04:12:00;5.40;99.90
18717;DHT22;9487;50.892;6.906;2022-12-07T04:14:27;5.30;99.90
18717;DHT22;9487;50.892;6.906;2022-12-07T04:16:56;5.30;99.90
18717;DHT22;9487;50.892;6.906;2022-12-07T04:19:26;5.30;99.90
18717;DHT22;9487;50.892;6.906;2022-12-07T04:21:54;5.20;99.90
18717;DHT22;9487;50.892;6.906;2022-12-07T04:24:21;5.20;99.90
18717;DHT22;9487;50.892;6.906;2022-12-07T04:26:48;5.20;99.90
18717;DHT22;9487;50.892;6.906;2022-12-07T04:29:15;5.20;99.90
18717;DHT22;9487;50.892;6.906;2022-12-07T04:31:43;5.20;99.90
18717;DHT22;9487;50.892;6.906;2022-12-07T04:34:10;5.20;99.90
18717;DHT22;9487;50.892;6.906;2022-12-07T04:36:39;5.10;99.90
18717;DHT22;9487;50.892;6.906;2022-12-07T04:39:07;5.20;99.90
18717;DHT22;9487;50.892;6.906;2022-12-07T04:41:35;5.20;99.90
18717;DHT22;9487;50.892;6.906;2022-12-07T04:44:03;5.20;99.90
18717;DHT22;9487;50.892;6.906;2022-12-07T04:46:33;5.20;99.90
18717;DHT22;9487;50.892;6.906;2022-12-07T04:48:59;5.10;99.90
18717;DHT22;9487;50.892;6.906;2022-12-07T04:51:28;5.00;99.90
18717;DHT22;9487;50.892;6.906;2022-12-07T04:53:56;5.10;99.90
18717;DHT22;9487;50.892;6.906;2022-12-07T04:56:24;5.10;99.90
18717;DHT22;9487;50.892;6.906;2022-12-07T04:58:52;5.10;99.90
18717;DHT22;9487;50.892;6.906;2022-12-07T05:01:20;5.20;99.90
18717;DHT22;9487;50.892;6.906;2022-12-07T05:03:47;5.10;99.90
18717;DHT22;9487;50.892;6.906;2022-12-07T05:06:14;5.00;99.90
18717;DHT22;9487;50.892;6.906;2022-12-07T05:08:42;5.00;99.90
18717;DHT22;9487;50.892;6.906;2022-12-07T05:11:11;5.00;99.90
18717;DHT22;9487;50.892;6.906;2022-12-07T05:13:59;4.90;99.90
18717;DHT22;9487;50.892;6.906;2022-12-07T05:16:26;4.90;99.90
18717;DHT22;9487;50.892;6.906;2022-12-07T05:18:53;4.90;99.90
18717;DHT22;9487;50.892;6.906;2022-12-07T05:21:20;4.90;99.90
18717;DHT22;9487;50.892;6.906;2022-12-07T05:23:47;4.90;99.90
18717;DHT22;9487;50.892;6.906;2022-12-07T05:26:15;4.90;99.90
18717;DHT22;9487;50.892;6.906;2022-12-07T05:28:43;4.80;99.90
18717;DHT22;9487;50.892;6.906;2022-12-07T05:31:09;4.80;99.90
18717;DHT22;9487;50.892;6.906;2022-12-07T05:33:36;4.80;99.90
18717;DHT22;9487;50.892;6.906;2022-12-07T05:36:03;4.80;99.90
18717;DHT22;9487;50.892;6.906;2022-12-07T05:38:33;4.80;99.90
18717;DHT22;9487;50.892;6.906;2022-12-07T05:41:01;4.90;99.90
18717;DHT22;9487;50.892;6.906;2022-12-07T05:43:29;4.90;99.90
18717;DHT22;9487;50.892;6.906;2022-12-07T05:45:56;4.90;99.90
18717;DHT22;9487;50.892;6.906;2022-12-07T05:48:23;4.90;99.90
18717;DHT22;9487;50.892;6.906;2022-12-07T05:50:51;4.90;99.90
18717;DHT22;9487;50.892;6.906;2022-12-07T05:53:18;4.90;99.90
18717;DHT22;9487;50.892;6.906;2022-12-07T05:55:45;4.90;99.90
18717;DHT22;9487;50.892;6.906;2022-12-07T05:58:12;4.80;99.90
18717;DHT22;9487;50.892;6.906;2022-12-07T06:01:03;4.80;99.90
18717;DHT22;9487;50.892;6.906;2022-12-07T06:03:30;4.90;99.90
18717;DHT22;9487;50.892;6.906;2022-12-07T06:05:57;4.90;99.90
18717;DHT22;9487;50.892;6.906;2022-12-07T06:08:24;4.90;99.90
18717;DHT22;9487;50.892;6.906;2022-12-07T06:10:50;5.00;99.90
18717;DHT22;9487;50.892;6.906;2022-12-07T06:13:37;5.10;99.90
18717;DHT22;9487;50.892;6.906;2022-12-07T06:16:05;5.10;99.90
18717;DHT22;9487;50.892;6.906;2022-12-07T06:18:32;5.10;99.90
18717;DHT22;9487;50.892;6.906;2022-12-07T06:20:59;5.10;99.90
18717;DHT22;9487;50.892;6.906;2022-12-07T06:23:26;5.10;99.90
18717;DHT22;9487;50.892;6.906;2022-12-07T06:25:53;4.90;99.90
18717;DHT22;9487;50.892;6.906;2022-12-07T06:28:19;4.80;99.90
18717;DHT22;9487;50.892;6.906;2022-12-07T06:30:46;4.80;99.90
18717;DHT22;9487;50.892;6.906;2022-12-07T06:33:14;4.70;99.90
18717;DHT22;9487;50.892;6.906;2022-12-07T06:35:41;4.70;99.90
18717;DHT22;9487;50.892;6.906;2022-12-07T06:38:08;4.70;99.90
18717;DHT22;9487;50.892;6.906;2022-12-07T06:40:34;4.70;99.90
18717;DHT22;9487;50.892;6.906;2022-12-07T06:43:01;4.70;99.90
18717;DHT22;9487;50.892;6.906;2022-12-07T06:45:28;4.70;99.90
18717;DHT22;9487;50.892;6.906;2022-12-07T06:47:55;4.70;99.90
18717;DHT22;9487;50.892;6.906;2022-12-07T06:50:23;4.70;99.90
18717;DHT22;9487;50.892;6.906;2022-12-07T06:52:51;4.70;99.90
18717;DHT22;9487;50.892;6.906;2022-12-07T06:55:18;4.80;99.90
18717;DHT22;9487;50.892;6.906;2022-12-07T06:57:45;4.80;99.90
18717;DHT22;9487;50.892;6.906;2022-12-07T07:00:13;5.00;99.90
18717;DHT22;9487;50.892;6.906;2022-12-07T07:02:39;5.00;99.90
18717;DHT22;9487;50.892;6.906;2022-12-07T07:05:07;5.00;99.90
18717;DHT22;9487;50.892;6.906;2022-12-07T07:07:35;5.00;99.90
18717;DHT22;9487;50.892;6.906;2022-12-07T07:10:02;4.90;99.90
18717;DHT22;9487;50.892;6.906;2022-12-07T07:12:29;4.90;99.90
18717;DHT22;9487;50.892;6.906;2022-12-07T07:14:56;4.80;99.90
18717;DHT22;9487;50.892;6.906;2022-12-07T07:17:23;4.80;99.90
18717;DHT22;9487;50.892;6.906;2022-12-07T07:19:49;4.80;99.90
18717;DHT22;9487;50.892;6.906;2022-12-07T07:22:16;4.80;99.90
18717;DHT22;9487;50.892;6.906;2022-12-07T07:24:45;4.80;99.90
18717;DHT22;9487;50.892;6.906;2022-12-07T07:27:12;4.80;99.90
18717;DHT22;9487;50.892;6.906;2022-12-07T07:29:39;4.80;99.90
18717;DHT22;9487;50.892;6.906;2022-12-07T07:32:05;4.90;99.90
18717;DHT22;9487;50.892;6.906;2022-12-07T07:34:33;5.00;99.90
18717;DHT22;9487;50.892;6.906;2022-12-07T07:37:00;5.10;99.90
18717;DHT22;9487;50.892;6.906;2022-12-07T07:39:27;5.10;99.90
18717;DHT22;9487;50.892;6.906;2022-12-07T07:41:55;5.00;99.90
18717;DHT22;9487;50.892;6.906;2022-12-07T07:44:22;4.90;99.90
18717;DHT22;9487;50.892;6.906;2022-12-07T07:46:49;5.00;99.90
18717;DHT22;9487;50.892;6.906;2022-12-07T07:49:15;5.10;99.90
18717;DHT22;9487;50.892;6.906;2022-12-07T07:51:42;5.10;99.90
18717;DHT22;9487;50.892;6.906;2022-12-07T07:54:09;5.20;99.90
18717;DHT22;9487;50.892;6.906;2022-12-07T07:56:36;5.00;99.90
18717;DHT22;9487;50.892;6.906;2022-12-07T07:59:04;5.00;99.90
18717;DHT22;9487;50.892;6.906;2022-12-07T08:01:31;5.10;99.90
18717;DHT22;9487;50.892;6.906;2022-12-07T08:03:58;5.10;99.90
18717;DHT22;9487;50.892;6.906;2022-12-07T08:06:25;5.20;99.90
18717;DHT22;9487;50.892;6.906;2022-12-07T08:08:52;5.30;99.90
18717;DHT22;9487;50.892;6.906;2022-12-07T08:11:19;5.30;99.90
18717;DHT22;9487;50.892;6.906;2022-12-07T08:13:46;5.30;99.90
18717;DHT22;9487;50.892;6.906;2022-12-07T08:16:14;5.30;99.90
18717;DHT22;9487;50.892;6.906;2022-12-07T08:18:42;5.40;99.90
18717;DHT22;9487;50.892;6.906;2022-12-07T08:21:11;5.50;99.90
18717;DHT22;9487;50.892;6.906;2022-12-07T08:23:38;5.50;99.90
18717;DHT22;9487;50.892;6.906;2022-12-07T08:26:07;5.30;99.90
18717;DHT22;9487;50.892;6.906;2022-12-07T08:28:35;5.40;99.90
18717;DHT22;9487;50.892;6.906;2022-12-07T08:31:02;5.20;99.90
18717;DHT22;9487;50.892;6.906;2022-12-07T08:33:31;5.30;99.90
18717;DHT22;9487;50.892;6.906;2022-12-07T08:36:00;5.30;99.90
18717;DHT22;9487;50.892;6.906;2022-12-07T08:38:27;5.40;99.90
18717;DHT22;9487;50.892;6.906;2022-12-07T08:40:54;5.50;99.90
18717;DHT22;9487;50.892;6.906;2022-12-07T08:43:22;5.50;99.90
18717;DHT22;9487;50.892;6.906;2022-12-07T08:45:56;5.60;99.90
18717;DHT22;9487;50.892;6.906;2022-12-07T08:48:26;5.60;99.90
18717;DHT22;9487;50.892;6.906;2022-12-07T08:50:54;5.70;99.90
18717;DHT22;9487;50.892;6.906;2022-12-07T08:53:21;5.70;99.90
18717;DHT22;9487;50.892;6.906;2022-12-07T08:55:48;5.80;99.90
18717;DHT22;9487;50.892;6.906;2022-12-07T08:58:16;5.80;99.90
18717;DHT22;9487;50.892;6.906;2022-12-07T09:00:43;5.70;99.90
18717;DHT22;9487;50.892;6.906;2022-12-07T09:03:09;5.70;99.90
18717;DHT22;9487;50.892;6.906;2022-12-07T09:05:37;5.80;99.90
18717;DHT22;9487;50.892;6.906;2022-12-07T09:08:05;5.80;99.90
18717;DHT22;9487;50.892;6.906;2022-12-07T09:10:32;5.60;99.90
18717;DHT22;9487;50.892;6.906;2022-12-07T09:12:59;5.50;99.90
18717;DHT22;9487;50.892;6.906;2022-12-07T09:15:26;5.40;99.90
18717;DHT22;9487;50.892;6.906;2022-12-07T09:17:54;5.50;99.90
18717;DHT22;9487;50.892;6.906;2022-12-07T09:20:21;5.70;99.90
18717;DHT22;9487;50.892;6.906;2022-12-07T09:22:48;5.80;99.90
18717;DHT22;9487;50.892;6.906;2022-12-07T09:25:16;5.80;99.90
18717;DHT22;9487;50.892;6.906;2022-12-07T09:27:43;5.90;99.90
18717;DHT22;9487;50.892;6.906;2022-12-07T09:30:10;5.90;99.90
18717;DHT22;9487;50.892;6.906;2022-12-07T09:32:37;6.00;99.90
18717;DHT22;9487;50.892;6.906;2022-12-07T09:35:04;6.00;99.90
18717;DHT22;9487;50.892;6.906;2022-12-07T09:37:31;5.90;99.90
18717;DHT22;9487;50.892;6.906;2022-12-07T09:40:00;6.00;99.90
18717;DHT22;9487;50.892;6.906;2022-12-07T09:42:32;6.00;99.90
18717;DHT22;9487;50.892;6.906;2022-12-07T09:45:00;6.00;99.90
18717;DHT22;9487;50.892;6.906;2022-12-07T09:47:28;6.10;99.90
18717;DHT22;9487;50.892;6.906;2022-12-07T09:50:00;6.10;99.90
18717;DHT22;9487;50.892;6.906;2022-12-07T09:52:30;7.30;99.90
18717;DHT22;9487;50.892;6.906;2022-12-07T09:54:57;7.40;99.90
18717;DHT22;9487;50.892;6.906;2022-12-07T09:57:29;7.00;99.90
18717;DHT22;9487;50.892;6.906;2022-12-07T10:00:00;6.80;99.90
18717;DHT22;9487;50.892;6.906;2022-12-07T10:02:36;6.70;99.90
18717;DHT22;9487;50.892;6.906;2022-12-07T10:05:06;6.50;99.90
18717;DHT22;9487;50.892;6.906;2022-12-07T10:07:33;6.50;99.90
18717;DHT22;9487;50.892;6.906;2022-12-07T10:10:03;6.40;99.90
18717;DHT22;9487;50.892;6.906;2022-12-07T10:12:55;6.30;99.90
18717;DHT22;9487;50.892;6.906;2022-12-07T10:15:22;6.20;99.90
18717;DHT22;9487;50.892;6.906;2022-12-07T10:17:50;6.20;99.90
18717;DHT22;9487;50.892;6.906;2022-12-07T10:20:21;6.20;99.90
18717;DHT22;9487;50.892;6.906;2022-12-07T10:23:00;6.00;99.90
18717;DHT22;9487;50.892;6.906;2022-12-07T10:25:29;6.10;99.90
18717;DHT22;9487;50.892;6.906;2022-12-07T10:28:01;6.10;99.90
18717;DHT22;9487;50.892;6.906;2022-12-07T10:30:29;6.10;99.90
18717;DHT22;9487;50.892;6.906;2022-12-07T10:32:56;6.10;99.90
18717;DHT22;9487;50.892;6.906;2022-12-07T10:35:25;6.10;99.90
18717;DHT22;9487;50.892;6.906;2022-12-07T10:37:53;6.10;99.90
18717;DHT22;9487;50.892;6.906;2022-12-07T10:40:27;6.10;99.90
18717;DHT22;9487;50.892;6.906;2022-12-07T10:43:08;6.10;99.90
18717;DHT22;9487;50.892;6.906;2022-12-07T10:45:54;6.00;99.90
18717;DHT22;9487;50.892;6.906;2022-12-07T10:48:30;6.00;99.90
18717;DHT22;9487;50.892;6.906;2022-12-07T10:51:06;6.10;99.90
18717;DHT22;9487;50.892;6.906;2022-12-07T10:53:50;6.10;99.90
18717;DHT22;9487;50.892;6.906;2022-12-07T10:59:42;6.30;99.90
18717;DHT22;9487;50.892;6.906;2022-12-07T11:02:24;6.20;99.90
18717;DHT22;9487;50.892;6.906;2022-12-07T11:05:02;6.30;99.90
18717;DHT22;9487;50.892;6.906;2022-12-07T11:07:41;6.40;99.90
18717;DHT22;9487;50.892;6.906;2022-12-07T11:10:15;6.40;99.90
18717;DHT22;9487;50.892;6.906;2022-12-07T11:12:58;6.60;99.90
18717;DHT22;9487;50.892;6.906;2022-12-07T11:15:36;7.40;99.90
18717;DHT22;9487;50.892;6.906;2022-12-07T11:18:13;7.70;99.90
18717;DHT22;9487;50.892;6.906;2022-12-07T11:20:45;7.50;99.90
18717;DHT22;9487;50.892;6.906;2022-12-07T11:23:23;7.30;99.90
18717;DHT22;9487;50.892;6.906;2022-12-07T11:25:59;7.10;99.90
18717;DHT22;9487;50.892;6.906;2022-12-07T11:28:41;7.00;99.90
18717;DHT22;9487;50.892;6.906;2022-12-07T11:31:21;6.70;99.90
18717;DHT22;9487;50.892;6.906;2022-12-07T11:33:53;6.60;99.90
18717;DHT22;9487;50.892;6.906;2022-12-07T11:36:33;6.70;99.90
18717;DHT22;9487;50.892;6.906;2022-12-07T11:39:04;6.60;99.90
18717;DHT22;9487;50.892;6.906;2022-12-07T11:44:06;6.60;99.90
18717;DHT22;9487;50.892;6.906;2022-12-07T11:46:46;6.70;99.90
18717;DHT22;9487;50.892;6.906;2022-12-07T11:49:21;6.80;99.90
18717;DHT22;9487;50.892;6.906;2022-12-07T11:51:53;6.70;99.90
18717;DHT22;9487;50.892;6.906;2022-12-07T11:54:26;6.70;99.90
18717;DHT22;9487;50.892;6.906;2022-12-07T11:56:57;6.70;99.90
18717;DHT22;9487;50.892;6.906;2022-12-07T11:59:32;6.80;99.90
18717;DHT22;9487;50.892;6.906;2022-12-07T12:02:13;6.90;99.90
18717;DHT22;9487;50.892;6.906;2022-12-07T12:04:47;7.00;99.90
18717;DHT22;9487;50.892;6.906;2022-12-07T12:07:19;6.80;99.90
18717;DHT22;9487;50.892;6.906;2022-12-07T12:09:50;6.70;99.90
18717;DHT22;9487;50.892;6.906;2022-12-07T12:12:34;6.80;99.90
18717;DHT22;9487;50.892;6.906;2022-12-07T12:15:18;6.70;99.90
18717;DHT22;9487;50.892;6.906;2022-12-07T12:18:03;6.80;99.90
18717;DHT22;9487;50.892;6.906;2022-12-07T12:20:35;6.80;99.90
18717;DHT22;9487;50.892;6.906;2022-12-07T12:23:11;6.70;99.90
18717;DHT22;9487;50.892;6.906;2022-12-07T12:25:42;6.50;99.90
18717;DHT22;9487;50.892;6.906;2022-12-07T12:28:22;6.80;99.90
18717;DHT22;9487;50.892;6.906;2022-12-07T12:31:08;6.80;99.90
18717;DHT22;9487;50.892;6.906;2022-12-07T12:33:38;6.90;99.90
18717;DHT22;9487;50.892;6.906;2022-12-07T12:36:20;6.80;99.90
18717;DHT22;9487;50.892;6.906;2022-12-07T12:38:50;6.50;99.90
18717;DHT22;9487;50.892;6.906;2022-12-07T12:45:18;6.40;99.90
18717;DHT22;9487;50.892;6.906;2022-12-07T12:47:54;6.40;99.90
18717;DHT22;9487;50.892;6.906;2022-12-07T12:50:27;6.30;99.90
18717;DHT22;9487;50.892;6.906;2022-12-07T12:53:16;6.30;99.90
18717;DHT22;9487;50.892;6.906;2022-12-07T12:58:42;6.60;99.90
18717;DHT22;9487;50.892;6.906;2022-12-07T13:01:44;6.30;99.90
18717;DHT22;9487;50.892;6.906;2022-12-07T13:04:34;6.40;99.90
18717;DHT22;9487;50.892;6.906;2022-12-07T13:07:12;6.50;99.90
18717;DHT22;9487;50.892;6.906;2022-12-07T13:09:43;6.40;99.90
18717;DHT22;9487;50.892;6.906;2022-12-07T13:12:13;6.30;99.90
18717;DHT22;9487;50.892;6.906;2022-12-07T13:14:57;6.30;99.90
18717;DHT22;9487;50.892;6.906;2022-12-07T13:17:56;6.20;99.90
18717;DHT22;9487;50.892;6.906;2022-12-07T13:20:50;6.20;99.90
18717;DHT22;9487;50.892;6.906;2022-12-07T13:23:33;6.30;99.90
18717;DHT22;9487;50.892;6.906;2022-12-07T13:26:14;6.30;99.90
18717;DHT22;9487;50.892;6.906;2022-12-07T13:28:43;6.40;99.90
18717;DHT22;9487;50.892;6.906;2022-12-07T13:34:00;6.60;99.90
18717;DHT22;9487;50.892;6.906;2022-12-07T13:36:29;6.70;99.90
18717;DHT22;9487;50.892;6.906;2022-12-07T13:39:15;6.50;99.90
18717;DHT22;9487;50.892;6.906;2022-12-07T13:41:43;6.50;99.90
18717;DHT22;9487;50.892;6.906;2022-12-07T13:44:12;6.60;99.90
18717;DHT22;9487;50.892;6.906;2022-12-07T13:46:48;6.70;99.90
18717;DHT22;9487;50.892;6.906;2022-12-07T13:49:18;6.70;99.90
18717;DHT22;9487;50.892;6.906;2022-12-07T13:51:45;6.80;99.90
18717;DHT22;9487;50.892;6.906;2022-12-07T13:54:14;6.80;99.90
18717;DHT22;9487;50.892;6.906;2022-12-07T13:56:42;6.80;99.90
18717;DHT22;9487;50.892;6.906;2022-12-07T13:59:19;6.80;99.90
18717;DHT22;9487;50.892;6.906;2022-12-07T14:01:48;6.80;99.90
18717;DHT22;9487;50.892;6.906;2022-12-07T14:04:32;6.70;99.90
18717;DHT22;9487;50.892;6.906;2022-12-07T14:07:00;6.70;99.90
18717;DHT22;9487;50.892;6.906;2022-12-07T14:09:29;6.70;99.90
18717;DHT22;9487;50.892;6.906;2022-12-07T14:11:57;6.60;99.90
18717;DHT22;9487;50.892;6.906;2022-12-07T14:14:27;6.60;99.90
18717;DHT22;9487;50.892;6.906;2022-12-07T14:17:01;6.70;99.90
18717;DHT22;9487;50.892;6.906;2022-12-07T14:19:46;6.70;99.90
18717;DHT22;9487;50.892;6.906;2022-12-07T14:22:31;6.70;99.90
18717;DHT22;9487;50.892;6.906;2022-12-07T14:25:13;6.60;99.90
18717;DHT22;9487;50.892;6.906;2022-12-07T14:27:51;6.60;99.90
18717;DHT22;9487;50.892;6.906;2022-12-07T14:30:22;6.60;99.90
18717;DHT22;9487;50.892;6.906;2022-12-07T14:32:52;6.60;99.90
18717;DHT22;9487;50.892;6.906;2022-12-07T14:35:20;6.60;99.90
18717;DHT22;9487;50.892;6.906;2022-12-07T14:37:48;6.60;99.90
18717;DHT22;9487;50.892;6.906;2022-12-07T14:40:19;6.60;99.90
18717;DHT22;9487;50.892;6.906;2022-12-07T14:42:48;6.60;99.90
18717;DHT22;9487;50.892;6.906;2022-12-07T14:45:18;6.60;99.90
18717;DHT22;9487;50.892;6.906;2022-12-07T14:47:46;6.60;99.90
18717;DHT22;9487;50.892;6.906;2022-12-07T14:50:14;6.60;99.90
18717;DHT22;9487;50.892;6.906;2022-12-07T14:52:43;6.60;99.90
18717;DHT22;9487;50.892;6.906;2022-12-07T14:55:14;6.60;99.90
18717;DHT22;9487;50.892;6.906;2022-12-07T14:57:44;6.50;99.90
18717;DHT22;9487;50.892;6.906;2022-12-07T15:00:14;6.60;99.90
18717;DHT22;9487;50.892;6.906;2022-12-07T15:02:42;6.60;99.90
18717;DHT22;9487;50.892;6.906;2022-12-07T15:05:09;6.60;99.90
18717;DHT22;9487;50.892;6.906;2022-12-07T15:07:36;6.50;99.90
18717;DHT22;9487;50.892;6.906;2022-12-07T15:10:04;6.60;99.90
18717;DHT22;9487;50.892;6.906;2022-12-07T15:12:31;6.50;99.90
18717;DHT22;9487;50.892;6.906;2022-12-07T15:14:59;6.60;99.90
18717;DHT22;9487;50.892;6.906;2022-12-07T15:17:27;6.50;99.90
18717;DHT22;9487;50.892;6.906;2022-12-07T15:19:54;6.50;99.90
18717;DHT22;9487;50.892;6.906;2022-12-07T15:22:20;6.50;99.90
18717;DHT22;9487;50.892;6.906;2022-12-07T15:24:47;6.50;99.90
18717;DHT22;9487;50.892;6.906;2022-12-07T15:27:14;6.40;99.90
18717;DHT22;9487;50.892;6.906;2022-12-07T15:29:41;6.40;99.90
18717;DHT22;9487;50.892;6.906;2022-12-07T15:32:09;6.40;99.90
18717;DHT22;9487;50.892;6.906;2022-12-07T15:34:35;6.40;99.90
18717;DHT22;9487;50.892;6.906;2022-12-07T15:37:02;6.40;99.90
18717;DHT22;9487;50.892;6.906;2022-12-07T15:39:29;6.40;99.90
18717;DHT22;9487;50.892;6.906;2022-12-07T15:41:56;6.40;99.90
18717;DHT22;9487;50.892;6.906;2022-12-07T15:44:23;6.40;99.90
18717;DHT22;9487;50.892;6.906;2022-12-07T15:47:08;6.40;99.90
18717;DHT22;9487;50.892;6.906;2022-12-07T15:49:35;6.30;99.90
18717;DHT22;9487;50.892;6.906;2022-12-07T15:52:02;6.30;99.90
18717;DHT22;9487;50.892;6.906;2022-12-07T15:54:29;6.30;99.90
18717;DHT22;9487;50.892;6.906;2022-12-07T15:56:57;6.30;99.90
18717;DHT22;9487;50.892;6.906;2022-12-07T15:59:26;6.20;99.90
18717;DHT22;9487;50.892;6.906;2022-12-07T16:01:53;6.10;99.90
18717;DHT22;9487;50.892;6.906;2022-12-07T16:04:21;6.10;99.90
18717;DHT22;9487;50.892;6.906;2022-12-07T16:06:48;6.20;99.90
18717;DHT22;9487;50.892;6.906;2022-12-07T16:09:16;6.20;99.90
18717;DHT22;9487;50.892;6.906;2022-12-07T16:11:43;6.10;99.90
18717;DHT22;9487;50.892;6.906;2022-12-07T16:14:09;6.10;99.90
18717;DHT22;9487;50.892;6.906;2022-12-07T16:16:36;6.00;99.90
18717;DHT22;9487;50.892;6.906;2022-12-07T16:19:05;6.00;99.90
18717;DHT22;9487;50.892;6.906;2022-12-07T16:21:35;5.90;99.90
18717;DHT22;9487;50.892;6.906;2022-12-07T16:24:02;5.80;99.90
18717;DHT22;9487;50.892;6.906;2022-12-07T16:26:30;5.70;99.90
18717;DHT22;9487;50.892;6.906;2022-12-07T16:28:58;5.60;99.90
18717;DHT22;9487;50.892;6.906;2022-12-07T16:31:26;5.70;99.90
18717;DHT22;9487;50.892;6.906;2022-12-07T16:33:54;5.70;99.90
18717;DHT22;9487;50.892;6.906;2022-12-07T16:36:22;5.60;99.90
18717;DHT22;9487;50.892;6.906;2022-12-07T16:38:51;5.60;99.90
18717;DHT22;9487;50.892;6.906;2022-12-07T16:41:18;5.70;99.90